x

8454049 - Quonset Point, Ri (qptr1) Weather Station

7:30 - Thu 23rd Feb 2017 All times are EST. -5 hours from GMT.

  • Wind
    9mph, 11mph gusts
  • Sea Temp 40°f
  • Ar Temp 48°f
  • Sea Pressure 1012.1mb
  • 8454049 - Quonset Point, Ri
  • 8454049 - Quonset Point, Ri

More Historic Weather Station data

Upgrade to MSW Pro to gain access to the past 30 days of data for over 8000 Wavebouys and Weather Stations around the globe.

Join Pro

Comparision Forecast

View Surf forecast
   
Qui 02/23 7:30 9 11 mph 1012.1mb 40f 48f
7:24 10 11 mph 1012.1mb 40f 48f
7:18 9 11 mph - - -
7:12 10 16 mph 1012.1mb 41f 47f
7:06 13 17 mph 1012mb 41f 47f
7:00 16 18 mph 1011.8mb 41f 48f
6:54 17 18 mph 1011.6mb 41f 48f
6:48 15 17 mph 1011.5mb - -
6:42 13 16 mph 1011.6mb 41f 47f
6:36 15 17 mph 1011.5mb 41f 47f
6:30 15 18 mph 1011.3mb 41f 48f
6:24 14 16 mph 1011.5mb 41f 47f
6:18 14 15 mph - - -
6:12 11 14 mph 1011.5mb 41f 47f
6:06 13 17 mph 1011.3mb 41f 47f
6:00 14 16 mph 1011.1mb 41f 48f
5:54 14 17 mph 1010.8mb 41f 47f
5:48 16 17 mph 1010.6mb - -
5:42 16 17 mph 1010.5mb 41f 45f
5:36 17 18 mph 1010.5mb 41f 43f
5:30 17 20 mph 1010.5mb 41f 43f
5:24 18 20 mph 1010.4mb 41f 44f
5:18 17 20 mph - - -
5:12 18 20 mph 1010mb 41f 44f
5:06 18 20 mph 1010mb 41f 45f
5:00 17 18 mph 1009.7mb 41f 45f
4:42 16 17 mph 1009.6mb 41f 46f
4:36 15 17 mph 1009.4mb 41f 46f
4:30 16 17 mph 1009.3mb 41f 46f
4:24 15 16 mph 1009.5mb 41f 46f
4:18 16 17 mph 1009.4mb 41f 46f
4:12 14 16 mph 1009.4mb 41f 47f
4:06 14 16 mph 1009.5mb 41f 46f
4:00 14 16 mph 1009.4mb 41f 47f
3:54 15 17 mph 1009.5mb 41f 47f
3:48 17
mph
- - -
3:42 16 18 mph 1009.4mb 41f 47f
3:36 18 21 mph 1009.4mb 41f 47f
3:30 18 20 mph 1009.4mb 41f 47f
3:24 18 21 mph 1009.4mb 41f 47f
3:18 18 21 mph - - -
3:12 18 21 mph 1009.4mb 41f 46f
3:06 20 22 mph 1009.5mb 41f 46f
3:00 20 23 mph 1009.5mb 41f 46f
2:54 21 22 mph 1009.5mb 41f 46f
2:48 20 22 mph 1009.6mb 41f 46f
2:42 18 21 mph 1009.6mb 41f 46f
2:36 17 21 mph 1009.6mb 41f 46f
2:30 18 20 mph 1009.6mb 41f 46f
2:24 15 18 mph 1009.6mb 41f 47f
2:18 16 18 mph 1009.6mb 41f 47f
2:12 16 18 mph 1009.6mb 41f 47f
2:06 16 20 mph 1009.7mb 41f 47f
1:54 15 18 mph 1009.8mb 41f 48f
1:48 18 22 mph 1009.8mb 41f 47f
1:42 17 21 mph 1009.7mb 41f 48f
1:36 18 22 mph 1009.7mb 41f 47f
1:30 21 23 mph 1009.8mb 41f 47f
1:24 21 23 mph 1009.8mb 41f 46f
1:18 20 23 mph 1010mb 41f 46f
1:12 20 22 mph 1010mb 41f 46f
1:06 18 21 mph 1010.1mb 41f 46f
1:00 20 23 mph 1010.1mb 41f 46f
12:54 15 20 mph 1010.2mb 40f 48f
12:48 14 18 mph 1010.3mb 40f 48f
12:42 15 23 mph 1010.3mb 40f 52f
12:36 20 23 mph 1010.3mb 40f 56f
12:30 18 25 mph 1010.4mb 40f 56f
12:24 20 23 mph 1010.5mb 40f 57f
12:18 22 26 mph 1010.6mb 40f 58f
12:12 16 20 mph 1010.7mb 40f 58f
12:06 17 18 mph 1010.9mb 40f 50f
12:00 16 18 mph 1010.9mb 41f 49f
11:48 13 17 mph 1011mb 41f 57f
11:42 14 16 mph 1011.1mb 41f 56f
11:36 11 13 mph 1011.3mb 41f 57f
11:30 10 14 mph 1011.5mb 41f 55f
11:18 14 17 mph 1011.8mb 40f 55f
11:12 13 15 mph 1011.9mb 40f 55f
11:06 13 15 mph 1012.1mb 40f 54f
11:00 13 16 mph 1012.2mb 40f 55f
10:48 11 13 mph 1012.4mb 40f 54f
10:42 7 10 mph 1012.4mb 40f 52f
10:36 8 9 mph 1012.4mb 40f 51f
10:30 9
mph
1012.4mb 40f 50f
10:18 8 10 mph 1012.4mb 40f 48f
10:12 7 9 mph 1012.5mb 40f 46f
10:06 6 8 mph 1012.6mb 40f 46f
10:00 8 9 mph 1012.6mb 40f 45f
9:54 8 9 mph 1012.6mb 40f 44f
9:48 8 9 mph 1012.5mb 40f 45f
9:42 8 9 mph 1012.5mb 40f 44f
9:36 8 9 mph 1012.6mb 40f 44f
9:30 9
mph
1012.6mb 40f 44f
9:24 9 10 mph 1012.6mb 39f 44f
9:18 8
mph
1012.7mb 39f 44f
9:12 6 8 mph 1012.6mb 39f 43f
9:06 7 8 mph 1012.6mb 39f 42f
9:00 8 9 mph 1012.7mb 39f 42f
8:54 8 9 mph 1012.7mb 39f 42f
8:48 6 8 mph 1012.8mb 39f 41f
8:42 5 7 mph 1012.7mb 39f 41f
8:36 7 8 mph 1012.7mb 39f 42f
8:30 7
mph
1012.7mb 39f 41f
8:24 7 9 mph 1012.7mb 39f 41f
8:18 8 9 mph 1012.7mb 39f 41f
8:12 8 9 mph 1012.6mb 39f 41f
8:06 8 11 mph 1012.6mb 39f 40f
8:00 10 13 mph 1012.6mb 39f 40f
7:54 11 13 mph 1012.6mb 39f 40f
7:48 11 13 mph 1012.6mb 39f 39f
7:42 10 13 mph 1012.6mb 39f 39f
7:36 11 13 mph 1012.5mb 39f 39f
7:30 10 11 mph 1012.5mb 39f 39f
7:24 8 9 mph 1012.5mb 39f 39f
7:18 8
mph
- - -
7:12 7 8 mph 1012.5mb 39f 39f
7:06 7
mph
1012.4mb 39f 39f
7:00 7
mph
1012.4mb 39f 38f
6:54 6 7 mph 1012.4mb 39f 38f
6:48 6 7 mph 1012.4mb 39f 38f
6:42 6 7 mph 1012.3mb 39f 38f
6:36 6 7 mph 1012.3mb 39f 38f
6:30 6 7 mph 1012.3mb 39f 38f
6:24 6
mph
1012.3mb 40f 39f
6:18 6
mph
1012.2mb 40f 39f
6:12 6 7 mph 1012.2mb 40f 39f
6:06 7 9 mph 1012.1mb 39f 39f
6:00 9
mph
1012.1mb 40f 39f
5:54 9 10 mph 1012.1mb 40f 39f
5:48 9 10 mph 1012.1mb 40f 39f
5:42 8 9 mph 1012.1mb 40f 39f
5:36 8 9 mph 1012.1mb 40f 39f
5:30 8
mph
1012.1mb 40f 39f
5:24 7 8 mph 1012.1mb 40f 39f
5:18 7 8 mph 1012.1mb 40f 39f
5:12 7 8 mph 1012.1mb 40f 39f
5:00 8
mph
1012.1mb 40f 40f
Qua 02/22 7:54 9 10 mph 1013mb 40f 45f
7:48 7 8 mph - - -
6:54 8
mph
1013.1mb 39f 46f
6:48 7 8 mph - - -
5:54 9 10 mph 1012.8mb 39f 46f
5:48 8 9 mph - - -
4:54 10
mph
1012.6mb 40f 48f
4:48 9 10 mph - - -
3:54 11 14 mph 1012.2mb 40f 46f
3:48 11 13 mph 1012.2mb 40f 47f
2:54 11 13 mph 1012.4mb 39f 47f
2:48 9 13 mph 1012.5mb 39f 46f
1:54 5 9 mph 1013.1mb 39f 48f
1:48 8 9 mph 1013.2mb 39f 50f
12:54 7 8 mph 1014.1mb 39f 49f
12:48 8 9 mph 1014.2mb 39f 46f
11:54 5 7 mph 1014.8mb 39f 49f
11:48 7 8 mph 1014.8mb 39f 48f
10:54 7 8 mph 1015.8mb 39f 47f
10:48 6 7 mph 1015.9mb 39f 47f
9:54 6 8 mph 1016.7mb 39f 44f
9:48 8 9 mph 1016.8mb 39f 44f
8:54 10 11 mph 1017.1mb 39f 42f
8:48 9 11 mph 1017.3mb 39f 42f
7:54 8 11 mph 1017.6mb 38f 41f
7:48 10 11 mph 1017.7mb 38f 41f
5:54 9 11 mph 1017.8mb 38f 41f
5:48 9 11 mph 1017.9mb 38f 41f
5:42 7 9 mph 1017.9mb 38f 41f
5:36 7 8 mph 1017.8mb 38f 41f
5:30 8 9 mph 1017.8mb 38f 41f
5:24 8 9 mph 1017.8mb 38f 41f
5:18 7 9 mph 1017.9mb 38f 41f
5:12 7 8 mph 1018mb 38f 41f
5:06 7 9 mph 1018mb 38f 41f
5:00 8
mph
1018mb 38f 41f
4:54 8 9 mph 1017.9mb 38f 41f
4:48 8 10 mph 1017.8mb 38f 41f
4:42 8 11 mph 1017.8mb 38f 41f
4:36 8 10 mph 1017.8mb 38f 41f
4:30 9 10 mph 1017.9mb 38f 41f
4:24 9
mph
1017.8mb 38f 40f
4:18 9 10 mph 1017.9mb 38f 41f
4:12 8 10 mph 1018.1mb 38f 40f
4:06 9 11 mph 1018.2mb 38f 40f
4:00 10 11 mph 1018.3mb 38f 40f
3:54 9 10 mph 1018.4mb 38f 40f
3:48 8 9 mph - - -
3:42 8 9 mph 1018.6mb 38f 40f
3:36 8 9 mph 1018.6mb 38f 40f
3:30 7 8 mph 1018.6mb 38f 39f
3:24 6 7 mph 1018.6mb 38f 39f
3:18 6
mph
1018.6mb 38f 39f
3:12 5 6 mph 1018.7mb 38f 39f
3:06 5 6 mph 1018.8mb 38f 39f
3:00 6 7 mph 1018.8mb 38f 39f
2:54 7 9 mph 1018.8mb 38f 39f
2:48 8 9 mph - - -
2:42 8 9 mph 1018.7mb 38f 39f
2:36 7 8 mph 1018.8mb 38f 39f
2:30 7 8 mph 1018.9mb 38f 39f
2:24 8
mph
1018.7mb 38f 39f
2:18 7 8 mph 1018.8mb 38f 39f
2:12 8 9 mph 1018.8mb 38f 39f
2:06 8 9 mph 1018.7mb 38f 39f
2:00 8 9 mph 1018.9mb 38f 39f
1:54 8 9 mph 1019mb 38f 39f
1:48 8 9 mph 1019.1mb 38f 39f
1:42 8 9 mph 1019.2mb - -
1:36 8 9 mph 1019.4mb - -
1:30 8
mph
1019.5mb 38f 39f
1:24 7 8 mph 1019.5mb 38f 39f
1:18 8
mph
- - -
1:12 7 8 mph 1019.7mb 39f 39f
1:06 7 8 mph 1019.6mb 39f 38f
1:00 8 9 mph 1019.7mb 39f 38f
12:54 8 9 mph 1019.9mb 39f 38f
12:48 8
mph
1020mb 39f 39f
12:42 8 9 mph 1020.1mb 39f 39f
12:36 9 10 mph 1020.1mb 39f 39f
12:30 9 10 mph 1020.2mb 39f 39f
12:24 10 11 mph 1020.3mb 39f 39f
12:18 9 10 mph 1020.3mb 39f 39f
12:12 9 10 mph 1020.4mb 39f 39f
12:06 9 10 mph 1020.6mb 39f 39f
12:00 9 10 mph 1020.7mb 39f 39f
Ter 02/21 11:54 10 11 mph 1020.6mb 39f 39f
11:48 10 11 mph 1020.8mb 39f 39f
11:42 10 11 mph 1020.8mb 40f 38f
11:36 10 11 mph 1020.9mb 40f 39f
11:30 10 11 mph 1020.9mb 40f 39f
11:24 10
mph
1021.1mb 40f 39f
11:18 9 10 mph 1020.9mb 40f 38f
11:12 8 9 mph 1021.2mb 40f 38f
11:06 8 10 mph 1021.4mb 40f 38f
11:00 9 10 mph 1021.5mb 40f 38f
10:54 8 10 mph 1021.7mb 40f 39f
10:48 9
mph
- - -
10:42 7 8 mph 1021.9mb 40f 39f
10:36 8 9 mph 1021.9mb 39f 39f
10:30 7 9 mph 1021.9mb 39f 39f
10:24 8 9 mph 1022mb 39f 39f
10:18 7 8 mph 1022.1mb 39f 39f
10:12 7 8 mph 1022.2mb 39f 39f
10:06 7 8 mph 1022.4mb 39f 39f
10:00 7 9 mph 1022.4mb 39f 39f
9:54 8 9 mph 1022.4mb 39f 39f
9:48 8
mph
1022.5mb 39f 39f
9:42 8
mph
1022.5mb 39f 39f
9:36 7 8 mph 1022.3mb 39f 39f
9:30 7 9 mph 1022.2mb 39f 39f
9:24 8
mph
1022.3mb 39f 39f
9:18 7 9 mph - - -
9:12 8 9 mph 1022.4mb 39f 39f
9:06 8 9 mph 1022.6mb 39f 39f
9:00 8 9 mph 1022.7mb 39f 39f
8:54 9 10 mph 1022.6mb 39f 39f
8:48 8 10 mph 1022.7mb - -
8:42 9 10 mph 1022.8mb 39f 39f
8:36 9 11 mph 1022.8mb 39f 39f
8:30 10
mph
1022.9mb 39f 39f
8:24 9 10 mph 1023.1mb 39f 39f
8:18 8 10 mph - - -
8:12 9 14 mph 1023.4mb 38f 39f
8:06 9 11 mph 1023.6mb 38f 39f
8:00 9 10 mph 1023.6mb 38f 39f
7:54 9 11 mph 1023.6mb 38f 39f
7:48 9 10 mph - - -
7:42 9 11 mph 1023.6mb 38f 38f
7:36 11 13 mph 1023.5mb 38f 39f
7:30 10 13 mph 1023.4mb 39f 38f
7:24 10 11 mph 1023.4mb 39f 38f
7:18 9 10 mph - - -
7:12 9 10 mph 1023.4mb 39f 38f
7:06 9 11 mph 1023.7mb 39f 38f
7:00 10 11 mph 1023.8mb 39f 38f
6:54 10 11 mph 1023.8mb 39f 38f
6:48 10 11 mph 1023.6mb - -
6:42 10 13 mph 1023.5mb 39f 38f
6:36 10 13 mph 1023.6mb 39f 38f
6:30 10 11 mph 1023.7mb 39f 39f
6:24 11 13 mph 1023.7mb 39f 39f
6:18 11 13 mph 1023.9mb - -
6:12 11 14 mph 1024.3mb 39f 39f
6:06 11 14 mph 1024.5mb 39f 39f
6:00 13 15 mph 1024.5mb 39f 39f
5:54 14 15 mph 1024.5mb 39f 39f
5:48 13 15 mph 1024.4mb - -
5:42 14 16 mph 1024.3mb 39f 39f
5:36 13 14 mph 1024.2mb 39f 39f
5:30 11 13 mph 1024.1mb 39f 39f
5:24 13 14 mph 1024mb 39f 39f
5:18 13 14 mph - - -
5:12 13 15 mph 1024.1mb 39f 39f
5:06 13 14 mph 1024.1mb 39f 38f
5:00 14 15 mph 1024.1mb 39f 38f
4:54 15 17 mph 1024.2mb 39f 38f
4:48 15 18 mph 1024.2mb - -
4:42 15 18 mph 1024.3mb 39f 38f
4:36 16 17 mph 1024.2mb 39f 38f
4:30 16 18 mph 1024.3mb 39f 38f
4:24 15 17 mph 1024.3mb 39f 38f
4:18 16 18 mph 1024.3mb 39f 38f
4:12 16 17 mph 1024.2mb 39f 38f
4:06 16 18 mph 1024.3mb 39f 38f
4:00 16 17 mph 1024.3mb 39f 38f
3:54 15 17 mph 1024.4mb 39f 39f
3:48 15 16 mph 1024.4mb 39f 39f
3:42 15 17 mph 1024.5mb 39f 39f
3:36 15 17 mph 1024.6mb 39f 39f
3:30 15 17 mph 1024.6mb 39f 39f
3:24 15 17 mph 1024.7mb 39f 39f
3:18 15 17 mph 1024.8mb 39f 39f
3:12 14 16 mph 1024.9mb 39f 39f
3:06 14 16 mph 1024.9mb 39f 39f
3:00 14 15 mph 1025mb 39f 39f
2:54 13 14 mph 1025mb 39f 39f
2:48 14 15 mph - - -
2:42 14 15 mph 1025.1mb 38f 39f
2:36 15
mph
1025.1mb 38f 39f
2:30 14 15 mph 1025.3mb 38f 39f
2:24 14 15 mph 1025.5mb 38f 39f
2:18 14 15 mph 1025.5mb 38f 39f
2:12 14 15 mph 1025.4mb 38f 38f
2:06 14 15 mph 1025.5mb 38f 38f
2:00 14 16 mph 1025.5mb 38f 38f
1:54 14 15 mph 1025.5mb 38f 38f
1:48 15 16 mph 1025.6mb 38f 38f
1:42 15 16 mph 1025.6mb 38f 38f
1:36 14 16 mph 1025.8mb 38f 38f
1:30 14 16 mph 1025.7mb 38f 38f
1:24 14 16 mph 1025.7mb 38f 38f
1:18 13 15 mph 1025.9mb 38f 39f
1:12 9 13 mph 1026.1mb 38f 39f
1:06 8 9 mph 1026mb 38f 39f
1:00 7 8 mph 1026.3mb 38f 39f
12:54 7 8 mph 1026.4mb 38f 39f
12:48 8
mph
1026.5mb 38f 39f
12:42 7
mph
1026.8mb 38f 39f
12:36 6 7 mph 1027mb 38f 39f
12:30 6
mph
1027.1mb 38f 39f
12:24 5
mph
1027.2mb 38f 39f
12:18 3 5 mph 1027.4mb 38f 39f
12:12 3
mph
1027.4mb 38f 39f
12:06 3 5 mph 1027.4mb 38f 39f
12:00 5
mph
1027.5mb 38f 38f
11:54 3
mph
1027.6mb 38f 39f
11:48 3
mph
1027.6mb 38f 39f
11:42 3
mph
1027.6mb 38f 39f
11:36 3
mph
1027.8mb 38f 39f
11:30 3
mph
1028mb 38f 39f
11:24 2 3 mph 1028.2mb 38f 39f
11:18 2
mph
1028.2mb 38f 39f
11:12 2 3 mph 1028.3mb 38f 39f
11:06 2 3 mph 1028.4mb 38f 39f
11:00 2 3 mph 1028.6mb 38f 38f
10:54 3 5 mph 1028.7mb 38f 38f
10:48 3 5 mph - - -
10:42 1 5 mph 1028.8mb 38f 38f
10:36 5
mph
1028.5mb 38f 37f
10:30 6
mph
1028.4mb 38f 36f
10:24 5 7 mph 1028.6mb 38f 36f
10:18 5 6 mph 1028.5mb 38f 36f
10:12 6 7 mph 1028.6mb 38f 36f
10:06 6 7 mph 1028.5mb 38f 35f
10:00 6 8 mph 1028.7mb 38f 35f
9:54 7 8 mph 1028.6mb 38f 35f
9:48 7 8 mph 1028.6mb 38f 35f
9:42 7 8 mph 1028.8mb 38f 35f
9:36 7 8 mph 1028.8mb 38f 35f
9:30 7 8 mph 1029mb 38f 35f
9:24 7 8 mph 1029.2mb 38f 35f
9:18 6 8 mph - - -
9:12 6 9 mph 1029.3mb 38f 34f
9:06 6 7 mph 1029.5mb 38f 34f
9:00 7 8 mph 1029.6mb 38f 34f
8:54 7 8 mph 1029.4mb 38f 34f
8:48 7 8 mph 1029.4mb 38f 33f
8:42 7 8 mph 1029.3mb 38f 33f
8:36 7 8 mph 1029.3mb 38f 33f
8:30 7 9 mph 1029.3mb 38f 33f
8:24 9
mph
1029.2mb 38f 33f
8:18 6 7 mph 1029.2mb 38f 33f
8:12 5 6 mph 1029.4mb 38f 33f
8:06 3 5 mph 1029.4mb 38f 33f
8:00 3 5 mph 1029.3mb 38f 33f
7:54 3
mph
1029.4mb 38f 33f
7:48 2 3 mph 1029.5mb 38f 33f
7:42 2 3 mph 1029.6mb 38f 33f
7:36 2 5 mph 1029.6mb 38f 33f
7:30 2 5 mph 1029.6mb 38f 32f
7:24 2 3 mph 1029.6mb 38f 32f
7:18 3
mph
1029.5mb 38f 32f
7:12 2
mph
1029.5mb 38f 32f
7:06 2 3 mph 1029.5mb 38f 32f
7:00 3 5 mph 1029.3mb 38f 31f
6:54 2
mph
1029.3mb 38f 31f
6:48 2 3 mph 1029.3mb 38f 31f
6:42 2 3 mph 1029.2mb 38f 30f
6:36 2 5 mph 1029.1mb 38f 30f
6:30 2 5 mph 1029mb 38f 30f
6:24 3 5 mph 1029mb 38f 30f
6:18 3 5 mph 1029.1mb 38f 30f
6:12 3
mph
1029.1mb 38f 30f
6:06 3
mph
1029mb 38f 30f
6:00 2 3 mph 1029mb 38f -
5:54 2 5 mph 1028.9mb 38f 30f
5:48 3
mph
1028.9mb 38f 30f
5:42 2 6 mph 1028.8mb 38f 30f
5:36 3 5 mph 1028.7mb 38f 30f
5:30 3 5 mph 1028.6mb 38f 30f
5:24 3 5 mph 1028.5mb 38f 30f
5:18 2 3 mph 1028.6mb 38f 30f
5:12  -  2 mph 1028.7mb 38f 30f
5:06 2 3 mph 1028.7mb 38f 30f
5:00 2 6 mph 1028.8mb 38f 30f
4:54 5 7 mph 1028.7mb 38f 30f
4:48 6 8 mph 1028.7mb 38f 30f
4:42 7 9 mph 1028.6mb 38f 31f
4:36 8 9 mph 1028.6mb 38f 31f
4:30 7 9 mph 1028.7mb 38f 31f
4:24 8 9 mph 1028.6mb 38f 31f
4:18 7 9 mph 1028.6mb 38f 31f
4:12 8 9 mph 1028.5mb 38f 31f
4:06 7 9 mph 1028.4mb 38f 31f
4:00 6 7 mph 1028.4mb 38f 31f
3:54 6 7 mph 1028.5mb 38f 31f
3:48 6 7 mph - - -
3:42 6 7 mph 1028.6mb 38f 31f
3:36 5 6 mph 1028.6mb 38f 31f
3:30 5 7 mph 1028.6mb 38f 31f
3:24 6 8 mph 1028.5mb 38f 31f
3:18 6 8 mph - - -
3:12 7 9 mph 1028.6mb 38f 31f
3:06 5 6 mph 1028.6mb 38f 31f
3:00 6 7 mph 1028.7mb 38f 32f
2:54 5 6 mph 1028.6mb 38f 32f
2:48 5 6 mph 1028.6mb 38f 32f
2:42 5 6 mph 1028.5mb 38f 32f
2:36 5 6 mph 1028.5mb 38f 32f
2:30 5 6 mph 1028.5mb 38f 32f
2:24 6 7 mph 1028.5mb 38f 33f
2:18 6 8 mph 1028.5mb 38f 33f
2:12 6 8 mph 1028.4mb 38f 33f
2:06 7 9 mph 1028.4mb 38f 33f
2:00 8 13 mph 1028.3mb 38f 33f
1:54 9 13 mph 1028.2mb 38f 34f
1:48 11 15 mph 1028.1mb 38f 34f
1:42 14 16 mph 1027.9mb 38f 35f
1:36 13 17 mph 1027.9mb 38f 35f
1:30 13 14 mph 1027.9mb 38f 35f
1:24 11 15 mph 1028mb 38f 35f
1:18 15 18 mph - - -
1:12 13 15 mph 1028.1mb 38f 35f
1:06 11 15 mph 1028.1mb 38f 35f
1:00 10 11 mph 1028mb 38f 35f
12:54 9 11 mph 1028mb 38f 34f
12:48 10 13 mph 1027.9mb 38f 34f
12:42 10 13 mph 1027.9mb 38f -
12:36 10 14 mph 1028mb 38f -
12:30 9 11 mph 1028.1mb 38f 34f
12:24 9 10 mph 1028.2mb 38f 35f
12:18 8 11 mph 1028.2mb 38f 34f
12:12 9 10 mph 1028.2mb 38f 35f
12:06 8 10 mph 1028.2mb 38f 35f
12:00 9 10 mph 1028.3mb 38f 35f
Seg 02/20 11:54 8 11 mph 1028.2mb 38f 35f
11:48 9 11 mph - - -
11:42 8 11 mph 1028.1mb 38f 35f
11:36 9 11 mph 1028mb 38f 35f
11:30 9 14 mph 1028mb 38f 35f
11:24 9 13 mph 1028mb 38f 36f
11:18 10 13 mph 1027.8mb 38f 36f
11:12 11 13 mph 1027.8mb 38f 36f
11:06 9 11 mph 1027.9mb 38f 36f
11:00 9 11 mph 1027.8mb 38f 35f
10:54 8 10 mph 1027.8mb 38f 36f
10:48 8 9 mph - - -
10:42 6 8 mph 1027.8mb 38f 36f
10:36 6 7 mph 1027.8mb 38f 36f
10:30 5 9 mph 1027.7mb 38f 36f
10:24 5 7 mph 1027.7mb 38f 36f
10:18 5 7 mph 1027.6mb 38f 36f
10:12 6 8 mph 1027.6mb 38f 36f
10:06 5 6 mph 1027.5mb 38f 36f
10:00 3 6 mph 1027.5mb 38f 36f
9:54 3 7 mph 1027.5mb 38f 36f
9:48 3 7 mph 1027.6mb 38f 36f
9:42 3 6 mph 1027.6mb 38f 37f
9:36 5 6 mph 1027.6mb 38f 37f
9:30 5 7 mph 1027.5mb 38f 37f
9:24 5 7 mph 1027.5mb 38f 37f
9:18 6 8 mph - - -
9:12 5 7 mph 1027.3mb 38f 38f
9:06 6 7 mph 1027.3mb 38f 38f
9:00 6 7 mph 1027.3mb 38f 38f
8:54 5 7 mph 1027.3mb 38f 38f
8:48 5 7 mph - - -
8:42 5 6 mph 1027.2mb 38f 38f
8:36 5 8 mph 1027.1mb 38f 38f
8:30 7 9 mph 1027mb 38f 39f
8:24 7 9 mph 1026.9mb 38f 39f
8:18 7 9 mph - - -
8:12 8 10 mph 1026.7mb 38f 39f
8:06 8 10 mph 1026.5mb 38f 39f
8:00 7 10 mph 1026.4mb 38f 39f
7:54 7 10 mph 1026.4mb 38f 39f
7:48 8 9 mph - - -
7:42 7 10 mph 1026.4mb 38f 39f
7:36 9 11 mph 1026.2mb 38f 40f
7:30 9 11 mph 1026.1mb 38f 40f
7:24 9 11 mph 1026mb 38f 40f
7:18 9 11 mph - - -
7:12 9 14 mph 1025.8mb 38f 40f
7:06 11 14 mph 1025.8mb 38f 40f
7:00 13 16 mph 1025.7mb 38f 41f
6:54 11 15 mph 1025.7mb 38f 41f
6:48 14 16 mph - - -
6:42 11 14 mph 1025.5mb 38f 41f
6:36 11 14 mph 1025.4mb 38f 40f
6:30 10 13 mph 1025.4mb 38f 40f
6:24 10 13 mph 1025.3mb 38f 41f
6:18 9 10 mph - - -
6:12 10 13 mph 1025.2mb 38f 41f
6:06 10 13 mph 1025.1mb 38f 41f
6:00 10 15 mph 1024.9mb 38f 42f
5:54 13 15 mph 1024.7mb 38f 42f
5:48 13 15 mph 1024.5mb - -
5:42 14 15 mph 1024.4mb 38f 42f
5:36 13 15 mph 1024.2mb 38f 42f
5:30 11 15 mph 1024mb 38f 42f
5:24 10 13 mph 1023.9mb 38f 43f
5:18 13 15 mph - - -
5:12 11 14 mph 1023.4mb 38f 43f
5:06 13 17 mph 1023.2mb 38f 43f
5:00 16 18 mph 1023mb 38f 44f
4:54 14 16 mph 1022.9mb 38f 43f
4:48 13 15 mph - - -
4:42 13 14 mph 1022.5mb 38f 43f
4:36 11 16 mph 1022.3mb 38f 43f
4:30 14 16 mph 1022.1mb 38f -
4:24 10 15 mph 1022mb 38f 44f
4:18 10 15 mph 1021.9mb 38f 46f
4:12 10 17 mph 1021.8mb 38f 46f
4:06 14 16 mph 1021.8mb 38f 44f
4:00 13 14 mph 1021.7mb 38f 45f
3:54 10 15 mph 1021.6mb 38f 44f
3:48 13 17 mph 1021.5mb 38f 46f
3:42 11 16 mph 1021.4mb 38f 46f
3:36 17 23 mph 1021.4mb 38f 46f
3:30 10 16 mph 1021.3mb 38f 46f
3:24 13 20 mph 1021.4mb 38f 46f
3:18 16 21 mph 1021.3mb 38f 46f
3:12 17 21 mph 1021.3mb 38f 46f
3:06 17 21 mph 1021.2mb 38f 46f
3:00 16 22 mph 1021.2mb 38f -
2:54 15 18 mph 1021.1mb 38f 46f
2:48 16 23 mph - - -
2:42 16 21 mph 1020.9mb 38f 45f
2:36 16 22 mph 1020.9mb 38f 46f
2:30 11 18 mph 1020.9mb 38f 46f
2:24 15 22 mph 1020.9mb 38f 46f
2:18 18 22 mph 1020.6mb 38f 46f
2:12 17 23 mph 1020.6mb 38f 45f
2:06 18 23 mph 1020.5mb 38f 45f
2:00 16 21 mph 1020.5mb 38f 45f
1:54 16 20 mph 1020.5mb 38f 45f
1:48 17 23 mph 1020.4mb 38f 46f
1:42 15 20 mph 1020.3mb 38f 44f
1:36 15 18 mph 1020.3mb 38f 44f
1:30 17 24 mph 1020.3mb - -
1:24 16 23 mph 1020.2mb 38f 44f
1:18 17 22 mph 1020.2mb 38f 45f
1:12 16 23 mph 1020.3mb 38f 45f
1:06 21 26 mph 1020.1mb 38f 45f
1:00 15 24 mph 1020.3mb 38f 45f
12:54 18 25 mph 1020.3mb 38f 45f
12:48 18 23 mph 1020.4mb 38f 45f
12:42 14 21 mph 1020.4mb 38f 45f
12:36 14 22 mph 1020.4mb 38f 45f
12:30 16 22 mph 1020.4mb 38f 44f
12:24 14 20 mph 1020.4mb 38f 44f
12:18 16 22 mph 1020.5mb 38f 44f
12:12 17 21 mph 1020.4mb 38f 44f
12:06 17 24 mph 1020.3mb 38f 44f
12:00 16 21 mph 1020.5mb 38f 44f
11:54 17 22 mph 1020.4mb 38f 44f
11:48 16 18 mph 1020.5mb 38f 44f
11:42 13 17 mph 1020.6mb 38f 44f
11:36 13 21 mph 1020.6mb 38f 44f
11:30 15 18 mph 1020.6mb 38f 44f
11:24 15 20 mph 1020.6mb 38f 44f
11:18 16 20 mph 1020.5mb 38f 44f
11:12 15 17 mph 1020.5mb 38f 44f
11:06 15 21 mph 1020.5mb 38f 44f
11:00 13 15 mph 1020.6mb 38f 44f
10:54 13 20 mph 1020.6mb 38f 44f
10:48 13 22 mph 1020.5mb 38f 44f
10:42 15 20 mph 1020.5mb 38f 44f
10:36 15 18 mph 1020.5mb 38f 44f
10:30 14 18 mph 1020.7mb 38f -
10:24 17 23 mph 1020.6mb 38f 43f
10:18 16 23 mph - - -
10:12 17 24 mph 1020.4mb 38f 43f
10:06 18 23 mph 1020.5mb 38f 43f
10:00 14 17 mph 1020.4mb 38f 43f
9:54 11 18 mph 1020.5mb 38f 43f
9:48 13 16 mph - - -
9:42 11 15 mph 1020.4mb 38f 42f
9:36 11 15 mph 1020.5mb 38f 41f
9:30 14 16 mph 1020.5mb 38f 41f
9:24 15 18 mph 1020.4mb 38f 42f
9:18 14 16 mph 1020.4mb 38f 42f
9:12 11 15 mph 1020.4mb 38f 41f
9:06 14 15 mph 1020.4mb 38f 40f
9:00 11 14 mph 1020.4mb 38f 40f
8:54 11 14 mph 1020.4mb 38f 41f
8:48 13 16 mph 1020.4mb 38f 41f
8:42 9 14 mph 1020.3mb 38f 41f
8:36 13 14 mph 1020.3mb 38f 40f
8:30 10 13 mph 1020.3mb 38f 40f
8:24 8 10 mph 1020.2mb 38f 41f
8:18 8 10 mph 1020.2mb 38f 42f
8:12 9 13 mph 1020.1mb 37f 42f
8:06 8 13 mph 1020mb 37f 43f
8:00 6 7 mph 1019.9mb 38f 43f
7:54 5 7 mph 1019.8mb 38f 43f
7:48 5 7 mph 1019.7mb 38f 42f
7:42 5 6 mph 1019.6mb 38f 42f
7:36 5 6 mph 1019.5mb 38f 42f
7:30 3 6 mph 1019.4mb 38f 42f
7:24 3 6 mph 1019.2mb 38f 42f
7:18 5 6 mph 1019.1mb 38f 42f
7:12 5 6 mph 1019mb 38f 41f
7:06 3 6 mph 1018.8mb 38f 40f
7:00 6
mph
1018.7mb 38f 40f
6:54 3 6 mph 1018.5mb 38f 41f
6:48 3 7 mph - - -
6:42 6 7 mph 1018.1mb 38f 41f
6:36 5 7 mph 1018.1mb 38f 41f
6:30 6 7 mph 1017.9mb 38f 41f
6:24 6 7 mph 1017.8mb 38f 41f
6:18 6 8 mph 1017.6mb 38f 41f
6:12 5 8 mph 1017.5mb 38f 41f
6:06 7 9 mph 1017.4mb 38f 42f
6:00 8 10 mph 1017.3mb 38f 41f
5:54 7 9 mph 1017.2mb 38f 41f
5:48 7 9 mph 1017.1mb 38f 41f
5:42 8 10 mph 1017mb 38f 42f
5:36 7 9 mph 1017mb 38f 42f
5:30 7 10 mph 1016.9mb 38f 42f
5:24 7 9 mph 1016.9mb 38f 42f
5:18 7 8 mph 1016.8mb 38f 42f
5:12 6 8 mph 1016.8mb 38f 42f
5:06 7 10 mph 1016.6mb 38f 42f
5:00 7 10 mph 1016.4mb 38f 42f
4:54 7 10 mph 1016.3mb 38f 42f
4:48 7 8 mph - - -
4:42 7 9 mph 1016.2mb 38f 42f
4:36 7 10 mph 1016mb 38f 43f
4:30 7 9 mph 1015.8mb 38f 43f
4:24 7 9 mph 1015.8mb 38f 43f
4:18 7 8 mph 1015.6mb 38f 42f
4:12 7 8 mph 1015.5mb 38f 42f
4:06 7 10 mph 1015.4mb 38f 43f
4:00 7 9 mph 1015.3mb 38f 43f
3:54 7 10 mph 1015.1mb 38f 43f
3:48 7 8 mph - - -
3:42 7 8 mph 1015mb 38f 44f
3:36 7 10 mph 1014.9mb 38f 44f
3:30 8 10 mph 1014.8mb 38f 44f
3:24 9 11 mph 1014.8mb 38f 44f
3:18 7 10 mph 1014.7mb 38f 44f
3:12 7 8 mph 1014.7mb 38f 44f
3:06 6 8 mph 1014.6mb 38f 44f
3:00 6 7 mph 1014.6mb 38f -
2:54 6 9 mph 1014.6mb 38f 44f
2:48 5 8 mph 1014.5mb 38f 44f
2:42 6 9 mph 1014.4mb 38f 45f
2:36 6 8 mph 1014.2mb 38f 45f
2:30 7 10 mph 1014.2mb 38f 45f
2:24 7 9 mph 1014.2mb 38f 46f
2:18 7 10 mph 1014.2mb 38f 45f
2:12 7 10 mph 1014.1mb 38f 45f
2:06 7 9 mph 1014mb 38f 45f
2:00 7 11 mph 1014mb 38f 45f
1:54 8 10 mph 1014mb 38f 46f
1:48 8 10 mph 1014.1mb 38f 46f
1:42 9 14 mph 1014.1mb 38f 46f
1:36 8 11 mph 1014mb 38f 46f
1:30 9 13 mph 1013.9mb 38f 46f